Skip Navigation Links Skip Navigation Links

Current Weather

Heathrow, London

For information only: do not use for flight planning or navigation.
Latest weather
Observation time Saturday, July 11, 2020 3:20 AM BST
Local time Saturday, July 11, 2020 3:31 AM BST
Flight conditions Visual Meteorological Conditions
Winds
Wind direction West-Northwest (290°)
Wind speed 5 mph
Visibility 6.2 mi.
Sky condition
Ceiling unlimited
Temperature 50°F
Dewpoint 45°F
Altimeter 30.24 in.Hg
Derived measurements
Relative humidity 82%
Wind chill 48°F
Density altitude -817 ft.
Remarks
Corrected report.
Fully automated report.
No significant changes expected in the next two hours.
METAR COR EGLL 110220Z AUTO 29004KT 9999 NCD 10/07 Q1024 NOSIG

Settings

Location code

InnerDrive.Weather 4.0.6770.0 Release CLR 4.0.30319.42000
Copyright ©2018 Inner Drive Technology. All rights reserved. Portions Copyright ©1986-2018 David Braverman.

Find weather

Site navigation


Skip Navigation Links

Place info

Page info

PayPal - The safer, easier way to pay online!

Return home.

Copyright ©2020 Inner Drive Technology. Purveyors of fine, hand-crafted computer software. Page printed 2020-07-11T02:31:23 UTC.